createdAt,value
2022-08-14T00:03:29.537Z,6.90
2022-08-14T00:08:42.033Z,7.78
2022-08-14T00:13:52.765Z,7.45
2022-08-14T00:19:06.152Z,7.57
2022-08-14T00:24:28.161Z,6.97
2022-08-14T00:29:40.115Z,7.75
2022-08-14T00:34:46.284Z,7.60
2022-08-14T00:39:51.283Z,7.87
2022-08-14T00:44:56.683Z,8.00
2022-08-14T00:50:00.064Z,7.78
2022-08-14T00:55:03.733Z,8.30
2022-08-14T01:00:34.502Z,8.47
2022-08-14T01:05:50.640Z,8.38
2022-08-14T01:10:56.581Z,9.80
2022-08-14T01:16:05.317Z,8.50
2022-08-14T01:21:13.229Z,8.67
2022-08-14T01:26:23.482Z,8.95
2022-08-14T01:31:40.807Z,8.95
2022-08-14T01:36:44.094Z,8.70
2022-08-14T01:41:56.303Z,8.85
2022-08-14T01:47:05.850Z,8.95
2022-08-14T01:52:13.421Z,9.27
2022-08-14T01:58:00.553Z,9.20
2022-08-14T02:03:02.077Z,9.32
2022-08-14T02:08:09.861Z,9.30
2022-08-14T02:13:16.246Z,9.20
2022-08-14T02:18:19.783Z,9.65
2022-08-14T02:23:30.513Z,9.50
2022-08-14T02:28:58.554Z,9.55
2022-08-14T02:34:20.021Z,9.70
2022-08-14T02:39:25.952Z,9.75
2022-08-14T02:44:39.725Z,9.50
2022-08-14T02:49:43.387Z,9.52
2022-08-14T02:54:47.017Z,9.23
2022-08-14T02:59:52.847Z,9.60
2022-08-14T03:04:56.179Z,9.48
2022-08-14T03:10:28.096Z,10.38
2022-08-14T03:15:25.759Z,9.30
2022-08-14T03:20:30.918Z,10.00
2022-08-14T03:25:37.527Z,10.07
2022-08-14T03:30:42.850Z,10.05
2022-08-14T03:36:07.603Z,9.70
2022-08-14T03:41:14.380Z,9.73
2022-08-14T03:46:51.952Z,9.25
2022-08-14T03:51:42.725Z,9.63
2022-08-14T03:56:46.742Z,9.95
2022-08-14T04:02:01.732Z,10.40
2022-08-14T04:07:05.604Z,10.07
2022-08-14T04:12:13.481Z,9.95
2022-08-14T04:17:18.422Z,10.18
2022-08-14T04:22:22.235Z,10.20
2022-08-14T04:27:27.197Z,10.18
2022-08-14T04:33:01.606Z,10.52
2022-08-14T04:38:36.159Z,11.17
2022-08-14T04:43:39.530Z,11.82
2022-08-14T04:48:51.346Z,10.53
2022-08-14T04:54:03.323Z,10.75
2022-08-14T04:59:10.543Z,10.20
2022-08-14T05:04:16.269Z,10.70
2022-08-14T05:09:24.239Z,10.80
2022-08-14T05:14:45.465Z,10.20
2022-08-14T05:21:04.781Z,10.13
2022-08-14T05:25:15.100Z,9.27
2022-08-14T05:30:19.725Z,8.20
2022-08-14T05:35:24.454Z,8.05
2022-08-14T05:40:28.192Z,7.78
2022-08-14T05:45:31.551Z,7.13
2022-08-14T05:50:39.269Z,7.20
2022-08-14T05:55:45.436Z,7.35
2022-08-14T06:00:49.853Z,7.07
2022-08-14T06:05:56.206Z,7.67
2022-08-14T06:11:03.656Z,7.63
2022-08-14T06:16:08.140Z,7.20
2022-08-14T06:21:15.843Z,7.27
2022-08-14T06:26:22.148Z,7.47
2022-08-14T06:31:26.004Z,7.50
2022-08-14T06:36:30.755Z,6.78
2022-08-14T06:41:56.689Z,8.17
2022-08-14T06:46:58.687Z,8.40
2022-08-14T06:52:03.418Z,8.63
2022-08-14T06:57:08.833Z,7.90
2022-08-14T07:02:43.755Z,7.07
2022-08-14T07:07:48.660Z,6.77
2022-08-14T07:13:01.941Z,6.00
2022-08-14T07:18:08.891Z,6.00
2022-08-14T07:23:20.576Z,5.72
2022-08-14T07:28:25.922Z,5.67
2022-08-14T07:33:31.626Z,5.70
2022-08-14T07:38:38.198Z,5.50
2022-08-14T07:43:42.268Z,5.40
2022-08-14T07:48:45.961Z,5.17
2022-08-14T07:53:56.838Z,4.90
2022-08-14T07:59:00.811Z,5.53
2022-08-14T08:04:16.419Z,4.53
2022-08-14T08:09:32.157Z,3.83
2022-08-14T08:14:55.511Z,4.50
2022-08-14T08:19:59.679Z,4.90
2022-08-14T08:25:08.528Z,4.30
2022-08-14T08:30:17.299Z,4.38
2022-08-14T08:35:23.545Z,4.00
2022-08-14T08:40:31.435Z,4.38
2022-08-14T08:45:37.469Z,4.53
2022-08-14T08:55:46.727Z,3.88
2022-08-14T09:00:54.194Z,3.20
2022-08-14T09:06:01.365Z,3.80
2022-08-14T09:11:18.958Z,3.37
2022-08-14T09:16:26.253Z,3.80
2022-08-14T09:21:31.097Z,3.78
2022-08-14T09:26:37.356Z,3.57
2022-08-14T09:31:53.169Z,3.70
2022-08-14T09:37:24.697Z,3.70
2022-08-14T09:42:50.207Z,3.60
2022-08-14T09:47:56.768Z,4.00
2022-08-14T09:53:02.841Z,3.60
2022-08-14T09:58:19.250Z,3.70
2022-08-14T10:03:33.457Z,3.70
2022-08-14T10:08:51.027Z,3.77
2022-08-14T10:14:00.125Z,3.40
2022-08-14T10:19:07.189Z,3.50
2022-08-14T10:24:17.559Z,3.83
2022-08-14T10:29:32.987Z,3.33
2022-08-14T10:34:40.878Z,3.60
2022-08-14T10:40:01.263Z,3.58
2022-08-14T10:45:21.956Z,3.97
2022-08-14T10:50:32.171Z,3.78
2022-08-14T10:55:45.397Z,4.20
2022-08-14T11:00:58.732Z,3.92
2022-08-14T11:06:14.612Z,3.92
2022-08-14T11:11:19.660Z,3.83
2022-08-14T11:16:29.620Z,4.03
2022-08-14T11:21:34.881Z,4.15
2022-08-14T11:26:45.282Z,3.85
2022-08-14T11:31:52.150Z,4.25
2022-08-14T11:37:09.612Z,3.88
2022-08-14T11:42:56.702Z,3.65
2022-08-14T11:48:13.260Z,4.00
2022-08-14T11:53:22.151Z,3.60
2022-08-14T11:58:31.247Z,3.97
2022-08-14T12:03:51.788Z,4.20
2022-08-14T12:09:00.765Z,4.03
2022-08-14T12:14:29.317Z,3.45
2022-08-14T12:19:53.689Z,4.03
2022-08-14T12:24:57.739Z,3.75
2022-08-14T12:30:01.356Z,3.83
2022-08-14T12:35:08.288Z,3.90
2022-08-14T12:40:19.474Z,3.90
2022-08-14T12:45:33.290Z,3.23
2022-08-14T12:50:40.404Z,3.80
2022-08-14T12:56:18.731Z,3.85
2022-08-14T13:01:17.230Z,3.83
2022-08-14T13:06:28.950Z,3.80
2022-08-14T13:11:41.395Z,4.07
2022-08-14T13:16:50.468Z,3.95
2022-08-14T13:22:04.964Z,4.10
2022-08-14T13:27:11.114Z,4.10
2022-08-14T13:32:14.904Z,4.18
2022-08-14T13:37:20.220Z,3.97
2022-08-14T13:42:30.812Z,3.90
2022-08-14T13:47:35.500Z,4.70
2022-08-14T13:52:52.614Z,4.63
2022-08-14T13:58:03.628Z,4.93
2022-08-14T14:03:09.222Z,5.30
2022-08-14T14:08:42.944Z,5.57
2022-08-14T14:13:42.072Z,4.97
2022-08-14T14:18:52.370Z,4.85
2022-08-14T14:23:58.096Z,5.53
2022-08-14T14:29:04.614Z,5.20
2022-08-14T14:34:29.348Z,4.80
2022-08-14T14:40:50.207Z,4.85
2022-08-14T14:45:06.375Z,4.37
2022-08-14T14:50:11.321Z,4.30
2022-08-14T14:55:18.706Z,4.87
2022-08-14T15:00:22.751Z,4.45
2022-08-14T15:05:28.330Z,4.80
2022-08-14T15:10:37.847Z,4.55
2022-08-14T15:15:44.272Z,4.20
2022-08-14T15:20:48.079Z,4.50
2022-08-14T15:25:56.328Z,5.20
2022-08-14T15:31:00.177Z,4.30
2022-08-14T15:36:04.549Z,4.68
2022-08-14T15:41:41.221Z,4.43
2022-08-14T15:46:45.658Z,4.30
2022-08-14T15:51:50.977Z,4.30
2022-08-14T15:57:01.060Z,4.55
2022-08-14T16:02:08.102Z,7.45
2022-08-14T16:07:15.118Z,13.00
2022-08-14T16:12:19.891Z,6.35
2022-08-14T16:17:43.883Z,4.68
2022-08-14T16:22:58.778Z,8.93
2022-08-14T16:28:07.340Z,4.60
2022-08-14T16:33:27.948Z,4.80
2022-08-14T16:38:45.648Z,4.90
2022-08-14T16:43:59.320Z,4.87
2022-08-14T16:49:04.444Z,4.45
2022-08-14T16:54:21.061Z,4.80
2022-08-14T16:59:57.198Z,4.90
2022-08-14T17:05:17.020Z,4.85
2022-08-14T17:10:28.290Z,4.65
2022-08-14T17:15:33.886Z,4.70
2022-08-14T17:21:01.743Z,4.45
2022-08-14T17:26:00.645Z,5.97
2022-08-14T17:31:06.469Z,4.32
2022-08-14T17:36:20.859Z,5.47
2022-08-14T17:41:27.198Z,4.67
2022-08-14T17:46:43.224Z,3.90
2022-08-14T17:52:01.690Z,4.30
2022-08-14T17:57:10.665Z,4.35
2022-08-14T18:02:22.624Z,4.70
2022-08-14T18:07:59.451Z,4.70
2022-08-14T18:12:58.616Z,4.50
2022-08-14T18:18:06.179Z,4.82
2022-08-14T18:23:13.121Z,5.27
2022-08-14T18:28:51.256Z,5.07
2022-08-14T18:33:54.383Z,4.97
2022-08-14T18:39:25.708Z,5.67
2022-08-14T18:45:15.322Z,5.22
2022-08-14T18:50:27.433Z,5.65
2022-08-14T18:55:53.187Z,5.35
2022-08-14T19:00:59.915Z,5.95
2022-08-14T19:06:07.054Z,6.00
2022-08-14T19:11:43.508Z,6.20
2022-08-14T19:16:53.470Z,6.23
2022-08-14T19:21:59.029Z,6.00
2022-08-14T19:27:26.420Z,5.88
2022-08-14T19:32:41.960Z,6.47
2022-08-14T19:37:52.733Z,5.90
2022-08-14T19:42:58.305Z,5.80
2022-08-14T19:48:03.394Z,6.20
2022-08-14T19:53:12.070Z,6.53
2022-08-14T19:58:30.022Z,8.07
2022-08-14T20:04:00.009Z,8.80
2022-08-14T20:11:06.965Z,9.35
2022-08-14T20:14:31.323Z,6.45
2022-08-14T20:19:37.985Z,6.22
2022-08-14T20:24:47.319Z,6.50
2022-08-14T20:30:33.917Z,6.23
2022-08-14T20:35:44.248Z,6.17
2022-08-14T20:40:52.283Z,8.07
2022-08-14T20:45:57.536Z,7.10
2022-08-14T20:51:21.136Z,7.40
2022-08-14T20:56:30.560Z,7.50
2022-08-14T21:01:38.572Z,7.93
2022-08-14T21:07:23.307Z,8.07
2022-08-14T21:12:06.229Z,8.30
2022-08-14T21:17:31.049Z,8.43
2022-08-14T21:22:34.483Z,8.77
2022-08-14T21:27:39.985Z,9.00
2022-08-14T21:33:02.461Z,9.48
2022-08-14T21:38:09.546Z,9.07
2022-08-14T21:43:23.785Z,8.38
2022-08-14T21:48:31.513Z,7.80
2022-08-14T21:53:36.823Z,7.03
2022-08-14T21:59:04.517Z,7.07
2022-08-14T22:04:32.878Z,7.30
2022-08-14T22:09:36.386Z,7.53
2022-08-14T22:14:43.306Z,7.10
2022-08-14T22:19:54.831Z,7.90
2022-08-14T22:25:01.067Z,7.70
2022-08-14T22:30:09.863Z,7.97
2022-08-14T22:35:17.413Z,7.90
2022-08-14T22:41:00.368Z,8.60
2022-08-14T22:45:55.122Z,8.65
2022-08-14T22:51:01.097Z,9.30
2022-08-14T22:56:05.122Z,9.15
2022-08-14T23:01:55.776Z,9.23
2022-08-14T23:07:03.402Z,9.55
2022-08-14T23:12:27.785Z,9.00
2022-08-14T23:17:40.451Z,8.88
2022-08-14T23:22:47.115Z,9.48
2022-08-14T23:28:03.943Z,9.50
2022-08-14T23:33:14.396Z,8.80
2022-08-14T23:38:30.582Z,9.10
2022-08-14T23:43:35.091Z,9.02
2022-08-14T23:48:40.421Z,8.53
2022-08-14T23:53:53.356Z,8.53
2022-08-14T23:58:57.432Z,9.55
